createdAt,value
2018-06-20T00:00:23.554Z,1017.4
2018-06-20T00:00:49.717Z,1017.37
2018-06-20T00:01:15.859Z,1017.39
2018-06-20T00:01:42.033Z,1017.38
2018-06-20T00:02:08.172Z,1017.35
2018-06-20T00:02:34.348Z,1017.35
2018-06-20T00:03:00.451Z,1017.37
2018-06-20T00:03:26.610Z,1017.33
2018-06-20T00:03:52.755Z,1017.34
2018-06-20T00:04:18.916Z,1017.33
2018-06-20T00:04:45.076Z,1017.32
2018-06-20T00:05:11.218Z,1017.33
2018-06-20T00:05:37.354Z,1017.32
2018-06-20T00:06:03.505Z,1017.32
2018-06-20T00:06:29.641Z,1017.31
2018-06-20T00:06:55.786Z,1017.29
2018-06-20T00:07:22.013Z,1017.29
2018-06-20T00:07:48.094Z,1017.29
2018-06-20T00:08:14.231Z,1017.3
2018-06-20T00:08:40.393Z,1017.3
2018-06-20T00:09:06.556Z,1017.3
2018-06-20T00:09:32.695Z,1017.28
2018-06-20T00:09:58.835Z,1017.3
2018-06-20T00:10:24.977Z,1017.27
2018-06-20T00:10:51.115Z,1017.27
2018-06-20T00:11:17.288Z,1017.27
2018-06-20T00:11:43.454Z,1017.25
2018-06-20T00:12:09.611Z,1017.26
2018-06-20T00:12:35.744Z,1017.27
2018-06-20T00:13:01.886Z,1017.23
2018-06-20T00:13:28.056Z,1017.22
2018-06-20T00:13:54.226Z,1017.22
2018-06-20T00:14:20.366Z,1017.22
2018-06-20T00:14:46.502Z,1017.23
2018-06-20T00:15:12.687Z,1017.25
2018-06-20T00:15:38.825Z,1017.22
2018-06-20T00:16:05.006Z,1017.22
2018-06-20T00:16:31.138Z,1017.24
2018-06-20T00:16:57.273Z,1017.21
2018-06-20T00:17:23.411Z,1017.21
2018-06-20T00:17:49.551Z,1017.22
2018-06-20T00:18:15.692Z,1017.21
2018-06-20T00:18:41.837Z,1017.15
2018-06-20T00:19:08.007Z,1017.17
2018-06-20T00:19:34.175Z,1017.19
2018-06-20T00:20:00.314Z,1017.16
2018-06-20T00:20:26.448Z,1017.17
2018-06-20T00:20:52.591Z,1017.14
2018-06-20T00:21:18.735Z,1017.16
2018-06-20T00:21:44.872Z,1017.14
2018-06-20T00:22:11.015Z,1017.15
2018-06-20T00:22:37.157Z,1017.14
2018-06-20T00:23:03.298Z,1017.13
2018-06-20T00:23:29.468Z,1017.14
2018-06-20T00:23:55.606Z,1017.13
2018-06-20T00:24:21.751Z,1017.13
2018-06-20T00:24:47.888Z,1017.17
2018-06-20T00:25:14.057Z,1017.12
2018-06-20T00:25:40.207Z,1017.12
2018-06-20T00:26:06.344Z,1017.09
2018-06-20T00:26:32.501Z,1017.09
2018-06-20T00:26:58.643Z,1017.08
2018-06-20T00:27:24.779Z,1017.09
2018-06-20T00:27:50.948Z,1017.06
2018-06-20T00:28:17.086Z,1017.1
2018-06-20T00:28:43.224Z,1017.1
2018-06-20T00:29:09.364Z,1017.06
2018-06-20T00:29:35.529Z,1017.08
2018-06-20T00:30:01.671Z,1017.09
2018-06-20T00:30:27.836Z,1017.09
2018-06-20T00:30:54.000Z,1017.08
2018-06-20T00:31:20.144Z,1017.11
2018-06-20T00:31:46.291Z,1017.04
2018-06-20T00:32:12.432Z,1017.05
2018-06-20T00:32:38.612Z,1017.06
2018-06-20T00:33:04.703Z,1017.06
2018-06-20T00:33:30.847Z,1017.05
2018-06-20T00:33:56.982Z,1017.06
2018-06-20T00:34:23.121Z,1017.04
2018-06-20T00:34:49.321Z,1017.04
2018-06-20T00:35:15.406Z,1017.04
2018-06-20T00:35:41.556Z,1017.02
2018-06-20T00:36:07.689Z,1017.04
2018-06-20T00:36:33.823Z,1017.03
2018-06-20T00:36:59.994Z,1017.01
2018-06-20T00:37:26.136Z,1017.03
2018-06-20T00:37:52.301Z,1017.05
2018-06-20T00:38:18.436Z,1017.05
2018-06-20T00:38:44.579Z,1017.01
2018-06-20T00:39:10.743Z,1017.05
2018-06-20T00:39:36.886Z,1017.05
2018-06-20T00:40:03.017Z,1017.05
2018-06-20T00:40:29.163Z,1017.05
2018-06-20T00:40:55.305Z,1017.07
2018-06-20T00:41:21.450Z,1017.02
2018-06-20T00:41:47.621Z,1017.02
2018-06-20T00:42:13.797Z,1017.01
2018-06-20T00:42:39.938Z,1016.99
2018-06-20T00:43:06.131Z,1016.99
2018-06-20T00:43:32.295Z,1016.99
2018-06-20T00:43:58.425Z,1016.96
2018-06-20T00:44:24.605Z,1016.99
2018-06-20T00:44:50.757Z,1016.99
2018-06-20T00:45:16.900Z,1016.95
2018-06-20T00:45:43.036Z,1017
2018-06-20T00:46:09.179Z,1016.94
2018-06-20T00:46:35.345Z,1016.97
2018-06-20T00:47:01.485Z,1016.99
2018-06-20T00:47:27.622Z,1016.99
2018-06-20T00:47:53.787Z,1016.98
2018-06-20T00:48:19.931Z,1017
2018-06-20T00:48:46.068Z,1017.03
2018-06-20T00:49:12.257Z,1017.02
2018-06-20T00:49:38.392Z,1017
2018-06-20T00:50:04.533Z,1017.03
2018-06-20T00:50:30.681Z,1016.98
2018-06-20T00:50:56.831Z,1017.02
2018-06-20T00:51:22.976Z,1016.99
2018-06-20T00:51:49.119Z,1017.02
2018-06-20T00:52:15.256Z,1017
2018-06-20T00:52:41.393Z,1016.99
2018-06-20T00:53:07.560Z,1016.95
2018-06-20T00:53:33.709Z,1016.95
2018-06-20T00:53:59.845Z,1016.95
2018-06-20T00:54:26.010Z,1016.95
2018-06-20T00:54:52.147Z,1016.93
2018-06-20T00:55:18.321Z,1016.89
2018-06-20T00:55:44.483Z,1016.94
2018-06-20T00:56:10.625Z,1016.96
2018-06-20T00:56:36.767Z,1016.96
2018-06-20T00:57:02.906Z,1016.95
2018-06-20T00:57:29.043Z,1016.93
2018-06-20T00:57:55.182Z,1016.94
2018-06-20T00:58:21.325Z,1016.92
2018-06-20T00:58:47.475Z,1016.91
2018-06-20T00:59:13.616Z,1016.9
2018-06-20T00:59:39.757Z,1016.89
2018-06-20T01:00:05.899Z,1016.88
2018-06-20T01:00:32.036Z,1016.88
2018-06-20T01:00:58.172Z,1016.92
2018-06-20T01:01:24.312Z,1016.95
2018-06-20T01:01:50.482Z,1016.93
2018-06-20T01:02:16.617Z,1016.88
2018-06-20T01:02:42.761Z,1016.91
2018-06-20T01:03:08.909Z,1016.91
2018-06-20T01:03:35.038Z,1016.91
2018-06-20T01:04:01.182Z,1016.91
2018-06-20T01:04:27.314Z,1016.89
2018-06-20T01:04:53.453Z,1016.85
2018-06-20T01:05:19.590Z,1016.86
2018-06-20T01:05:45.732Z,1016.89
2018-06-20T01:06:11.885Z,1016.87
2018-06-20T01:06:38.050Z,1016.84
2018-06-20T01:07:04.187Z,1016.86
2018-06-20T01:07:30.354Z,1016.86
2018-06-20T01:07:56.498Z,1016.84
2018-06-20T01:08:22.635Z,1016.83
2018-06-20T01:08:48.777Z,1016.81
2018-06-20T01:09:14.937Z,1016.81
2018-06-20T01:09:41.085Z,1016.83
2018-06-20T01:10:07.282Z,1016.83
2018-06-20T01:10:33.423Z,1016.83
2018-06-20T01:10:59.556Z,1016.81
2018-06-20T01:11:25.703Z,1016.81
2018-06-20T01:11:51.886Z,1016.84
2018-06-20T01:12:17.998Z,1016.82
2018-06-20T01:12:44.142Z,1016.79
2018-06-20T01:13:10.284Z,1016.82
2018-06-20T01:13:36.424Z,1016.79
2018-06-20T01:14:02.565Z,1016.81
2018-06-20T01:14:28.709Z,1016.8
2018-06-20T01:14:54.866Z,1016.78
2018-06-20T01:15:21.029Z,1016.81
2018-06-20T01:15:47.170Z,1016.75
2018-06-20T01:16:13.332Z,1016.77
2018-06-20T01:16:39.474Z,1016.76
2018-06-20T01:17:05.619Z,1016.78
2018-06-20T01:17:31.758Z,1016.75
2018-06-20T01:17:57.901Z,1016.77
2018-06-20T01:18:24.070Z,1016.76
2018-06-20T01:18:50.207Z,1016.8
2018-06-20T01:19:16.350Z,1016.77
2018-06-20T01:19:42.502Z,1016.79
2018-06-20T01:20:08.664Z,1016.81
2018-06-20T01:20:34.798Z,1016.8
2018-06-20T01:21:00.964Z,1016.81
2018-06-20T01:21:27.126Z,1016.8
2018-06-20T01:21:53.268Z,1016.83
2018-06-20T01:22:19.404Z,1016.81
2018-06-20T01:22:45.544Z,1016.79
2018-06-20T01:23:11.685Z,1016.77
2018-06-20T01:23:37.830Z,1016.74
2018-06-20T01:24:03.974Z,1016.78
2018-06-20T01:24:30.109Z,1016.74
2018-06-20T01:24:56.253Z,1016.75
2018-06-20T01:25:22.392Z,1016.77
2018-06-20T01:25:48.532Z,1016.75
2018-06-20T01:26:14.695Z,1016.75
2018-06-20T01:26:40.837Z,1016.72
2018-06-20T01:27:07.025Z,1016.77
2018-06-20T01:27:33.165Z,1016.74
2018-06-20T01:27:59.301Z,1016.73
2018-06-20T01:28:25.436Z,1016.74
2018-06-20T01:28:51.577Z,1016.74
2018-06-20T01:29:17.722Z,1016.76
2018-06-20T01:29:43.886Z,1016.75
2018-06-20T01:30:10.027Z,1016.78
2018-06-20T01:30:36.161Z,1016.76
2018-06-20T01:31:02.331Z,1016.73
2018-06-20T01:31:28.467Z,1016.73
2018-06-20T01:31:54.630Z,1016.76
2018-06-20T01:32:20.769Z,1016.74
2018-06-20T01:32:46.908Z,1016.76
2018-06-20T01:33:13.048Z,1016.76
2018-06-20T01:33:39.186Z,1016.77
2018-06-20T01:34:05.329Z,1016.77
2018-06-20T01:34:31.497Z,1016.78
2018-06-20T01:34:57.635Z,1016.77
2018-06-20T01:35:23.781Z,1016.74
2018-06-20T01:35:49.915Z,1016.77
2018-06-20T01:36:16.047Z,1016.79
2018-06-20T01:36:42.186Z,1016.8
2018-06-20T01:37:08.325Z,1016.77
2018-06-20T01:37:34.464Z,1016.76
2018-06-20T01:38:00.602Z,1016.76
2018-06-20T01:38:26.742Z,1016.76
2018-06-20T01:38:52.890Z,1016.76
2018-06-20T01:39:19.022Z,1016.75
2018-06-20T01:39:45.185Z,1016.76
2018-06-20T01:40:11.319Z,1016.74
2018-06-20T01:40:37.461Z,1016.74
2018-06-20T01:41:03.603Z,1016.74
2018-06-20T01:41:29.764Z,1016.75
2018-06-20T01:41:55.907Z,1016.71
2018-06-20T01:42:22.075Z,1016.74
2018-06-20T01:42:48.217Z,1016.75
2018-06-20T01:43:14.351Z,1016.74
2018-06-20T01:43:40.514Z,1016.73
2018-06-20T01:44:06.654Z,1016.74
2018-06-20T01:44:32.792Z,1016.74
2018-06-20T01:44:58.932Z,1016.74
2018-06-20T01:45:25.070Z,1016.75
2018-06-20T01:45:51.213Z,1016.74
2018-06-20T01:46:17.351Z,1016.76
2018-06-20T01:46:43.485Z,1016.76
2018-06-20T01:47:09.630Z,1016.74
2018-06-20T01:47:35.763Z,1016.77
2018-06-20T01:48:01.913Z,1016.74
2018-06-20T01:48:28.048Z,1016.77
2018-06-20T01:48:54.187Z,1016.75
2018-06-20T01:49:20.322Z,1016.77
2018-06-20T01:49:46.462Z,1016.76
2018-06-20T01:50:12.608Z,1016.75
2018-06-20T01:50:38.734Z,1016.74
2018-06-20T01:51:04.899Z,1016.76
2018-06-20T01:51:31.091Z,1016.74
2018-06-20T01:51:57.232Z,1016.74
2018-06-20T01:52:23.371Z,1016.75
2018-06-20T01:52:49.512Z,1016.74
2018-06-20T01:53:15.649Z,1016.77
2018-06-20T01:53:41.807Z,1016.73
2018-06-20T01:54:07.948Z,1016.73
2018-06-20T01:54:34.200Z,1016.76
2018-06-20T01:55:00.369Z,1016.74
2018-06-20T01:55:26.565Z,1016.74
2018-06-20T01:55:52.759Z,1016.71
2018-06-20T01:56:18.898Z,1016.68
2018-06-20T01:56:45.045Z,1016.73
2018-06-20T01:57:11.204Z,1016.72
2018-06-20T01:57:37.348Z,1016.71
2018-06-20T01:58:03.493Z,1016.73
2018-06-20T01:58:29.627Z,1016.76
2018-06-20T01:58:55.796Z,1016.73
2018-06-20T01:59:21.936Z,1016.73
2018-06-20T01:59:48.076Z,1016.71
2018-06-20T02:00:14.213Z,1016.75
2018-06-20T02:00:40.360Z,1016.75
2018-06-20T02:01:06.495Z,1016.72
2018-06-20T02:01:32.644Z,1016.73
2018-06-20T02:01:58.786Z,1016.7
2018-06-20T02:02:24.943Z,1016.73
2018-06-20T02:02:51.112Z,1016.71
2018-06-20T02:03:17.251Z,1016.72
2018-06-20T02:03:43.407Z,1016.73
2018-06-20T02:04:09.549Z,1016.71
2018-06-20T02:04:35.703Z,1016.7
2018-06-20T02:05:01.871Z,1016.71
2018-06-20T02:05:28.033Z,1016.71
2018-06-20T02:05:54.201Z,1016.69
2018-06-20T02:06:20.342Z,1016.68
2018-06-20T02:06:46.484Z,1016.68
2018-06-20T02:07:12.642Z,1016.66
2018-06-20T02:07:38.791Z,1016.67
2018-06-20T02:08:04.925Z,1016.7
2018-06-20T02:08:31.072Z,1016.68
2018-06-20T02:08:57.209Z,1016.68
2018-06-20T02:09:23.354Z,1016.66
2018-06-20T02:09:49.492Z,1016.65
2018-06-20T02:10:15.630Z,1016.65
2018-06-20T02:10:41.791Z,1016.62
2018-06-20T02:11:07.930Z,1016.69
2018-06-20T02:11:34.094Z,1016.68
2018-06-20T02:12:00.230Z,1016.66
2018-06-20T02:12:26.372Z,1016.67
2018-06-20T02:12:52.513Z,1016.64
2018-06-20T02:13:18.681Z,1016.69
2018-06-20T02:13:44.809Z,1016.68
2018-06-20T02:14:10.952Z,1016.69
2018-06-20T02:14:37.091Z,1016.67
2018-06-20T02:15:03.260Z,1016.68
2018-06-20T02:15:29.403Z,1016.67
2018-06-20T02:15:55.548Z,1016.68
2018-06-20T02:16:21.692Z,1016.69
2018-06-20T02:16:47.831Z,1016.68
2018-06-20T02:17:13.970Z,1016.7
2018-06-20T02:17:40.110Z,1016.69
2018-06-20T02:18:06.270Z,1016.69
2018-06-20T02:18:32.425Z,1016.68
2018-06-20T02:18:58.550Z,1016.65
2018-06-20T02:19:24.690Z,1016.65
2018-06-20T02:19:50.834Z,1016.65
2018-06-20T02:20:17.008Z,1016.64
2018-06-20T02:20:43.154Z,1016.63
2018-06-20T02:21:09.290Z,1016.6
2018-06-20T02:21:35.455Z,1016.65
2018-06-20T02:22:01.600Z,1016.6
2018-06-20T02:22:27.738Z,1016.62
2018-06-20T02:22:53.884Z,1016.61
2018-06-20T02:23:20.040Z,1016.6
2018-06-20T02:23:46.181Z,1016.57
2018-06-20T02:24:12.345Z,1016.57
2018-06-20T02:24:38.485Z,1016.58
2018-06-20T02:25:04.630Z,1016.58
2018-06-20T02:25:30.764Z,1016.56
2018-06-20T02:25:56.901Z,1016.55
2018-06-20T02:26:23.047Z,1016.53
2018-06-20T02:26:49.181Z,1016.58
2018-06-20T02:27:15.325Z,1016.55
2018-06-20T02:27:41.485Z,1016.58
2018-06-20T02:28:07.639Z,1016.57
2018-06-20T02:28:33.773Z,1016.57
2018-06-20T02:28:59.922Z,1016.58
2018-06-20T02:29:26.060Z,1016.52
2018-06-20T02:29:52.203Z,1016.57
2018-06-20T02:30:18.363Z,1016.57
2018-06-20T02:30:44.537Z,1016.58
2018-06-20T02:31:10.725Z,1016.56
2018-06-20T02:31:36.903Z,1016.58
2018-06-20T02:32:03.048Z,1016.55
2018-06-20T02:32:29.188Z,1016.57
2018-06-20T02:32:55.356Z,1016.55
2018-06-20T02:33:21.542Z,1016.52
2018-06-20T02:33:47.739Z,1016.54
2018-06-20T02:34:13.880Z,1016.53
2018-06-20T02:34:40.052Z,1016.55
2018-06-20T02:35:06.246Z,1016.54
2018-06-20T02:35:32.431Z,1016.52
2018-06-20T02:35:58.565Z,1016.5
2018-06-20T02:36:24.739Z,1016.52
2018-06-20T02:36:50.876Z,1016.51
2018-06-20T02:37:17.038Z,1016.49
2018-06-20T02:37:43.207Z,1016.49
2018-06-20T02:38:09.370Z,1016.49
2018-06-20T02:38:35.570Z,1016.49
2018-06-20T02:39:01.673Z,1016.47
2018-06-20T02:39:27.808Z,1016.48
2018-06-20T02:39:53.995Z,1016.49
2018-06-20T02:40:20.181Z,1016.47
2018-06-20T02:40:46.319Z,1016.49
2018-06-20T02:41:12.459Z,1016.48
2018-06-20T02:41:38.677Z,1016.49
2018-06-20T02:42:04.824Z,1016.45
2018-06-20T02:42:30.982Z,1016.47
2018-06-20T02:42:57.167Z,1016.47
2018-06-20T02:43:23.334Z,1016.46
2018-06-20T02:43:49.479Z,1016.46
2018-06-20T02:44:15.657Z,1016.44
2018-06-20T02:44:41.800Z,1016.41
2018-06-20T02:45:07.960Z,1016.41
2018-06-20T02:45:34.099Z,1016.44
2018-06-20T02:46:00.234Z,1016.42
2018-06-20T02:46:26.372Z,1016.41
2018-06-20T02:46:52.525Z,1016.42
2018-06-20T02:47:18.722Z,1016.4
2018-06-20T02:47:44.864Z,1016.41
2018-06-20T02:48:11.014Z,1016.41
2018-06-20T02:48:37.176Z,1016.44
2018-06-20T02:49:03.363Z,1016.41
2018-06-20T02:49:29.505Z,1016.41
2018-06-20T02:49:55.670Z,1016.37
2018-06-20T02:50:21.856Z,1016.39
2018-06-20T02:50:48.013Z,1016.39
2018-06-20T02:51:14.173Z,1016.34
2018-06-20T02:51:40.346Z,1016.41
2018-06-20T02:52:06.492Z,1016.36
2018-06-20T02:52:32.728Z,1016.4
2018-06-20T02:52:58.825Z,1016.37
2018-06-20T02:53:25.017Z,1016.39
2018-06-20T02:53:51.157Z,1016.37
2018-06-20T02:54:17.317Z,1016.38
2018-06-20T02:54:43.500Z,1016.41
2018-06-20T02:55:09.641Z,1016.41
2018-06-20T02:55:35.828Z,1016.37
2018-06-20T02:56:01.992Z,1016.4
2018-06-20T02:56:28.154Z,1016.39
2018-06-20T02:56:54.344Z,1016.39
2018-06-20T02:57:20.508Z,1016.39
2018-06-20T02:57:46.641Z,1016.41
2018-06-20T02:58:12.843Z,1016.4
2018-06-20T02:58:39.054Z,1016.38
2018-06-20T02:59:05.198Z,1016.4
2018-06-20T02:59:31.336Z,1016.4
2018-06-20T02:59:57.482Z,1016.4
2018-06-20T03:00:23.671Z,1016.42
2018-06-20T03:00:49.877Z,1016.43
2018-06-20T03:01:16.182Z,1016.39
2018-06-20T03:01:42.508Z,1016.41
2018-06-20T03:02:08.790Z,1016.37
2018-06-20T03:02:35.078Z,1016.37
2018-06-20T03:03:01.474Z,1016.42
2018-06-20T03:03:27.686Z,1016.38
2018-06-20T03:03:53.929Z,1016.35
2018-06-20T03:04:20.092Z,1016.38
2018-06-20T03:04:46.333Z,1016.33
2018-06-20T03:05:12.615Z,1016.37
2018-06-20T03:05:39.090Z,1016.37
2018-06-20T03:06:05.253Z,1016.35
2018-06-20T03:06:31.436Z,1016.35
2018-06-20T03:06:57.606Z,1016.33
2018-06-20T03:07:23.776Z,1016.36
2018-06-20T03:07:49.916Z,1016.32
2018-06-20T03:08:16.053Z,1016.34
2018-06-20T03:08:42.208Z,1016.35
2018-06-20T03:09:08.347Z,1016.35
2018-06-20T03:09:34.488Z,1016.35
2018-06-20T03:10:00.675Z,1016.34
2018-06-20T03:10:26.816Z,1016.35
2018-06-20T03:10:52.985Z,1016.37
2018-06-20T03:11:19.143Z,1016.34
2018-06-20T03:11:45.294Z,1016.31
2018-06-20T03:12:11.465Z,1016.38
2018-06-20T03:12:37.627Z,1016.36
2018-06-20T03:13:03.805Z,1016.34
2018-06-20T03:13:29.950Z,1016.33
2018-06-20T03:13:56.090Z,1016.4
2018-06-20T03:14:22.233Z,1016.37
2018-06-20T03:14:48.429Z,1016.38
2018-06-20T03:15:14.570Z,1016.37
2018-06-20T03:15:40.730Z,1016.36
2018-06-20T03:16:06.895Z,1016.35
2018-06-20T03:16:33.083Z,1016.36
2018-06-20T03:16:59.220Z,1016.35
2018-06-20T03:17:25.381Z,1016.35
2018-06-20T03:17:51.522Z,1016.32
2018-06-20T03:18:17.714Z,1016.38
2018-06-20T03:18:43.849Z,1016.27
2018-06-20T03:19:10.040Z,1016.34
2018-06-20T03:19:36.203Z,1016.35
2018-06-20T03:20:02.371Z,1016.33
2018-06-20T03:20:28.515Z,1016.32
2018-06-20T03:20:54.696Z,1016.32
2018-06-20T03:21:20.835Z,1016.32
2018-06-20T03:21:46.982Z,1016.32
2018-06-20T03:22:13.140Z,1016.31
2018-06-20T03:22:39.283Z,1016.33
2018-06-20T03:23:05.433Z,1016.34
2018-06-20T03:23:31.567Z,1016.29
2018-06-20T03:23:57.709Z,1016.31
2018-06-20T03:24:23.848Z,1016.31
2018-06-20T03:24:49.993Z,1016.32
2018-06-20T03:25:16.139Z,1016.28
2018-06-20T03:25:42.315Z,1016.34
2018-06-20T03:26:08.448Z,1016.32
2018-06-20T03:26:34.595Z,1016.27
2018-06-20T03:27:00.742Z,1016.31
2018-06-20T03:27:26.965Z,1016.31
2018-06-20T03:27:53.071Z,1016.28
2018-06-20T03:28:19.223Z,1016.34
2018-06-20T03:28:45.360Z,1016.31
2018-06-20T03:29:11.496Z,1016.29
2018-06-20T03:29:37.645Z,1016.31
2018-06-20T03:30:03.811Z,1016.31
2018-06-20T03:30:29.996Z,1016.29
2018-06-20T03:30:56.160Z,1016.28
2018-06-20T03:31:22.395Z,1016.29
2018-06-20T03:31:48.530Z,1016.28
2018-06-20T03:32:14.746Z,1016.28
2018-06-20T03:32:40.877Z,1016.27
2018-06-20T03:33:07.025Z,1016.29
2018-06-20T03:33:33.169Z,1016.31
2018-06-20T03:33:59.363Z,1016.28
2018-06-20T03:34:25.525Z,1016.25
2018-06-20T03:34:51.664Z,1016.26
2018-06-20T03:35:17.801Z,1016.25
2018-06-20T03:35:43.946Z,1016.27
2018-06-20T03:36:10.085Z,1016.2
2018-06-20T03:36:36.225Z,1016.26
2018-06-20T03:37:02.368Z,1016.22
2018-06-20T03:37:28.512Z,1016.2
2018-06-20T03:37:54.649Z,1016.21
2018-06-20T03:38:20.788Z,1016.23
2018-06-20T03:38:46.928Z,1016.24
2018-06-20T03:39:13.101Z,1016.2
2018-06-20T03:39:39.285Z,1016.19
2018-06-20T03:40:05.431Z,1016.2
2018-06-20T03:40:31.569Z,1016.18
2018-06-20T03:40:57.703Z,1016.17
2018-06-20T03:41:23.876Z,1016.18
2018-06-20T03:41:50.023Z,1016.18
2018-06-20T03:42:16.183Z,1016.16
2018-06-20T03:42:42.348Z,1016.16
2018-06-20T03:43:08.482Z,1016.16
2018-06-20T03:43:34.624Z,1016.18
2018-06-20T03:44:00.771Z,1016.17
2018-06-20T03:44:26.913Z,1016.16
2018-06-20T03:44:53.070Z,1016.16
2018-06-20T03:45:19.205Z,1016.17
2018-06-20T03:45:45.343Z,1016.18
2018-06-20T03:46:11.476Z,1016.16
2018-06-20T03:46:37.616Z,1016.16
2018-06-20T03:47:03.805Z,1016.15
2018-06-20T03:47:29.947Z,1016.19
2018-06-20T03:47:56.097Z,1016.15
2018-06-20T03:48:22.246Z,1016.15
2018-06-20T03:48:48.416Z,1016.16
2018-06-20T03:49:14.555Z,1016.17
2018-06-20T03:49:40.697Z,1016.18
2018-06-20T03:50:06.884Z,1016.18
2018-06-20T03:50:33.024Z,1016.15
2018-06-20T03:50:59.166Z,1016.18
2018-06-20T03:51:25.333Z,1016.18
2018-06-20T03:51:51.475Z,1016.17
2018-06-20T03:52:17.644Z,1016.21
2018-06-20T03:52:43.776Z,1016.2
2018-06-20T03:53:09.937Z,1016.2
2018-06-20T03:53:36.105Z,1016.22
2018-06-20T03:54:02.261Z,1016.22
2018-06-20T03:54:28.407Z,1016.23
2018-06-20T03:54:54.558Z,1016.21
2018-06-20T03:55:20.734Z,1016.23
2018-06-20T03:55:46.875Z,1016.19
2018-06-20T03:56:13.012Z,1016.17
2018-06-20T03:56:39.151Z,1016.22
2018-06-20T03:57:05.290Z,1016.17
2018-06-20T03:57:31.432Z,1016.21
2018-06-20T03:57:57.564Z,1016.18
2018-06-20T03:58:23.734Z,1016.17
2018-06-20T03:58:49.876Z,1016.2
2018-06-20T03:59:16.036Z,1016.19
2018-06-20T03:59:42.191Z,1016.2
2018-06-20T04:00:08.376Z,1016.2
2018-06-20T04:00:34.518Z,1016.2
2018-06-20T04:01:00.652Z,1016.2
2018-06-20T04:01:26.792Z,1016.25
2018-06-20T04:01:52.935Z,1016.2
2018-06-20T04:02:19.109Z,1016.19
2018-06-20T04:02:45.275Z,1016.22
2018-06-20T04:03:11.418Z,1016.2
2018-06-20T04:03:37.553Z,1016.18
2018-06-20T04:04:03.694Z,1016.14
2018-06-20T04:04:29.834Z,1016.17
2018-06-20T04:04:55.975Z,1016.17
2018-06-20T04:05:22.116Z,1016.17
2018-06-20T04:05:48.258Z,1016.16
2018-06-20T04:06:14.425Z,1016.13
2018-06-20T04:06:40.565Z,1016.13
2018-06-20T04:07:06.708Z,1016.15
2018-06-20T04:07:32.837Z,1016.16
2018-06-20T04:07:59.004Z,1016.18
2018-06-20T04:08:25.143Z,1016.12
2018-06-20T04:08:51.277Z,1016.19
2018-06-20T04:09:17.422Z,1016.17
2018-06-20T04:09:43.579Z,1016.17
2018-06-20T04:10:09.727Z,1016.21
2018-06-20T04:10:35.868Z,1016.2
2018-06-20T04:11:02.006Z,1016.22
2018-06-20T04:11:28.171Z,1016.22
2018-06-20T04:11:54.306Z,1016.21
2018-06-20T04:12:20.440Z,1016.24
2018-06-20T04:12:46.589Z,1016.23
2018-06-20T04:13:12.758Z,1016.22
2018-06-20T04:13:38.889Z,1016.21
2018-06-20T04:14:05.031Z,1016.23
2018-06-20T04:14:31.192Z,1016.21
2018-06-20T04:14:57.339Z,1016.22
2018-06-20T04:15:23.477Z,1016.23
2018-06-20T04:15:49.634Z,1016.22
2018-06-20T04:16:15.771Z,1016.2
2018-06-20T04:16:41.915Z,1016.23
2018-06-20T04:17:08.058Z,1016.22
2018-06-20T04:17:34.196Z,1016.22
2018-06-20T04:18:00.334Z,1016.22
2018-06-20T04:18:26.520Z,1016.22
2018-06-20T04:18:52.668Z,1016.2
2018-06-20T04:19:18.830Z,1016.17
2018-06-20T04:19:44.993Z,1016.19
2018-06-20T04:20:11.129Z,1016.16
2018-06-20T04:20:37.270Z,1016.17
2018-06-20T04:21:03.410Z,1016.18
2018-06-20T04:21:29.566Z,1016.21
2018-06-20T04:21:55.732Z,1016.21
2018-06-20T04:22:21.918Z,1016.17
2018-06-20T04:22:48.083Z,1016.22
2018-06-20T04:23:14.223Z,1016.18
2018-06-20T04:23:40.393Z,1016.2
2018-06-20T04:24:06.521Z,1016.17
2018-06-20T04:24:32.668Z,1016.21
2018-06-20T04:24:58.803Z,1016.19
2018-06-20T04:25:24.948Z,1016.18
2018-06-20T04:25:51.106Z,1016.21
2018-06-20T04:26:17.266Z,1016.18
2018-06-20T04:26:43.409Z,1016.21
2018-06-20T04:27:09.549Z,1016.17
2018-06-20T04:27:35.721Z,1016.19
2018-06-20T04:28:01.916Z,1016.17
2018-06-20T04:28:28.023Z,1016.16
2018-06-20T04:28:54.164Z,1016.17
2018-06-20T04:29:20.303Z,1016.17
2018-06-20T04:29:46.440Z,1016.18
2018-06-20T04:30:12.580Z,1016.19
2018-06-20T04:30:38.724Z,1016.16
2018-06-20T04:31:04.867Z,1016.17
2018-06-20T04:31:31.004Z,1016.14
2018-06-20T04:31:57.142Z,1016.15
2018-06-20T04:32:23.345Z,1016.14
2018-06-20T04:32:49.480Z,1016.17
2018-06-20T04:33:15.638Z,1016.15
2018-06-20T04:33:41.775Z,1016.14
2018-06-20T04:34:07.911Z,1016.13
2018-06-20T04:34:34.068Z,1016.16
2018-06-20T04:35:00.267Z,1016.12
2018-06-20T04:35:26.348Z,1016.12
2018-06-20T04:35:52.484Z,1016.13
2018-06-20T04:36:18.626Z,1016.1
2018-06-20T04:36:44.787Z,1016.12
2018-06-20T04:37:10.922Z,1016.14
2018-06-20T04:37:37.066Z,1016.1
2018-06-20T04:38:03.194Z,1016.11
2018-06-20T04:38:29.359Z,1016.11
2018-06-20T04:38:55.502Z,1016.12
2018-06-20T04:39:21.643Z,1016.1
2018-06-20T04:39:47.781Z,1016.13
2018-06-20T04:40:13.925Z,1016.16
2018-06-20T04:40:40.064Z,1016.12
2018-06-20T04:41:06.255Z,1016.09
2018-06-20T04:41:32.412Z,1016.09
2018-06-20T04:41:58.564Z,1016.11
2018-06-20T04:42:24.703Z,1016.1
2018-06-20T04:42:50.850Z,1016.12
2018-06-20T04:43:17.009Z,1016.13
2018-06-20T04:43:43.145Z,1016.14
2018-06-20T04:44:09.283Z,1016.14
2018-06-20T04:44:35.476Z,1016.15
2018-06-20T04:45:01.622Z,1016.14
2018-06-20T04:45:27.761Z,1016.13
2018-06-20T04:45:53.911Z,1016.14
2018-06-20T04:46:20.070Z,1016.16
2018-06-20T04:46:46.217Z,1016.17
2018-06-20T04:47:12.362Z,1016.16
2018-06-20T04:47:38.501Z,1016.17
2018-06-20T04:48:04.640Z,1016.17
2018-06-20T04:48:30.783Z,1016.17
2018-06-20T04:48:56.921Z,1016.18
2018-06-20T04:49:23.066Z,1016.17
2018-06-20T04:49:49.226Z,1016.17
2018-06-20T04:50:15.373Z,1016.16
2018-06-20T04:50:41.510Z,1016.14
2018-06-20T04:51:07.650Z,1016.14
2018-06-20T04:51:33.790Z,1016.17
2018-06-20T04:51:59.936Z,1016.14
2018-06-20T04:52:26.077Z,1016.15
2018-06-20T04:52:52.215Z,1016.14
2018-06-20T04:53:18.395Z,1016.12
2018-06-20T04:53:44.578Z,1016.11
2018-06-20T04:54:10.710Z,1016.13
2018-06-20T04:54:36.856Z,1016.11
2018-06-20T04:55:02.994Z,1016.1
2018-06-20T04:55:29.162Z,1016.13
2018-06-20T04:55:55.285Z,1016.08
2018-06-20T04:56:21.440Z,1016.07
2018-06-20T04:56:47.580Z,1016.08
2018-06-20T04:57:13.722Z,1016.09
2018-06-20T04:57:39.865Z,1016.07
2018-06-20T04:58:06.001Z,1016.1
2018-06-20T04:58:32.145Z,1016.08
2018-06-20T04:58:58.281Z,1016.09
2018-06-20T04:59:24.418Z,1016.12
2018-06-20T04:59:50.585Z,1016.11
2018-06-20T05:00:16.725Z,1016.06
2018-06-20T05:00:42.888Z,1016.11
2018-06-20T05:01:09.032Z,1016.09
2018-06-20T05:01:35.166Z,1016.13
2018-06-20T05:02:01.311Z,1016.11
2018-06-20T05:02:27.468Z,1016.11
2018-06-20T05:02:53.623Z,1016.1
2018-06-20T05:03:19.763Z,1016.11
2018-06-20T05:03:45.907Z,1016.07
2018-06-20T05:04:12.054Z,1016.05
2018-06-20T05:04:38.202Z,1016.03
2018-06-20T05:05:04.351Z,1016.04
2018-06-20T05:05:30.492Z,1016.06
2018-06-20T05:05:56.630Z,1016.04
2018-06-20T05:06:22.768Z,1016.04
2018-06-20T05:06:48.911Z,1016.08
2018-06-20T05:07:15.070Z,1016.12
2018-06-20T05:07:41.266Z,1016.09
2018-06-20T05:08:07.409Z,1016
2018-06-20T05:08:33.558Z,1016.05
2018-06-20T05:08:59.722Z,1016.05
2018-06-20T05:09:25.863Z,1016.07
2018-06-20T05:09:52.000Z,1016.04
2018-06-20T05:10:18.145Z,1016.03
2018-06-20T05:10:44.313Z,1016.08
2018-06-20T05:11:10.463Z,1016.1
2018-06-20T05:11:36.600Z,1016.06
2018-06-20T05:12:02.740Z,1016
2018-06-20T05:12:28.883Z,1016.05
2018-06-20T05:12:55.028Z,1016.06
2018-06-20T05:13:21.171Z,1016.02
2018-06-20T05:13:47.319Z,1016.08
2018-06-20T05:14:13.463Z,1016.02
2018-06-20T05:14:39.603Z,1015.97
2018-06-20T05:15:05.749Z,1016.03
2018-06-20T05:15:31.903Z,1016.03
2018-06-20T05:15:58.046Z,1016.01
2018-06-20T05:16:24.187Z,1015.96
2018-06-20T05:16:50.324Z,1015.98
2018-06-20T05:17:16.462Z,1015.99